createdAt,value
2022-11-24T00:01:21.925Z,68.99
2022-11-24T00:04:04.219Z,68.67
2022-11-24T00:06:32.605Z,68.23
2022-11-24T00:09:00.701Z,68.37
2022-11-24T00:11:30.190Z,68.04
2022-11-24T00:13:57.931Z,67.92
2022-11-24T00:16:28.353Z,67.63
2022-11-24T00:18:57.541Z,67.78
2022-11-24T00:21:25.684Z,67.61
2022-11-24T00:23:53.429Z,67.49
2022-11-24T00:26:25.751Z,68.30
2022-11-24T00:28:55.214Z,68.10
2022-11-24T00:31:31.036Z,68.36
2022-11-24T00:34:00.365Z,68.15
2022-11-24T00:36:31.384Z,67.79
2022-11-24T00:39:04.393Z,67.49
2022-11-24T00:41:32.112Z,67.17
2022-11-24T00:44:00.023Z,67.46
2022-11-24T00:46:27.915Z,67.19
2022-11-24T00:48:55.615Z,66.73
2022-11-24T00:51:26.038Z,66.83
2022-11-24T00:53:54.069Z,67.06
2022-11-24T00:56:21.382Z,66.94
2022-11-24T00:58:48.979Z,66.59
2022-11-24T01:01:21.579Z,66.67
2022-11-24T01:03:49.318Z,66.49
2022-11-24T01:06:18.965Z,66.17
2022-11-24T01:08:46.534Z,67.27
2022-11-24T01:11:18.350Z,67.09
2022-11-24T01:13:47.796Z,67.31
2022-11-24T01:16:22.837Z,67.56
2022-11-24T01:18:50.442Z,68.03
2022-11-24T01:21:18.691Z,67.80
2022-11-24T01:23:46.590Z,68.53
2022-11-24T01:26:16.463Z,68.27
2022-11-24T01:28:46.980Z,68.72
2022-11-24T01:31:15.114Z,69.09
2022-11-24T01:33:42.462Z,68.25
2022-11-24T01:36:10.068Z,68.14
2022-11-24T01:38:37.386Z,68.04
2022-11-24T01:41:17.050Z,68.67
2022-11-24T01:43:45.563Z,68.15
2022-11-24T01:46:19.987Z,67.55
2022-11-24T01:49:02.014Z,67.65
2022-11-24T01:51:31.520Z,68.12
2022-11-24T01:54:02.103Z,68.00
2022-11-24T01:56:30.415Z,67.47
2022-11-24T01:58:59.466Z,67.29
2022-11-24T02:01:27.721Z,68.25
2022-11-24T02:03:55.468Z,69.17
2022-11-24T02:06:28.184Z,69.01
2022-11-24T02:08:55.301Z,69.53
2022-11-24T02:11:23.739Z,69.26
2022-11-24T02:13:53.227Z,69.52
2022-11-24T02:16:20.647Z,69.30
2022-11-24T02:18:48.363Z,70.08
2022-11-24T02:21:16.568Z,68.81
2022-11-24T02:24:07.766Z,69.91
2022-11-24T02:26:46.482Z,71.21
2022-11-24T02:29:14.625Z,71.14
2022-11-24T02:31:45.801Z,71.61
2022-11-24T02:34:13.156Z,71.82
2022-11-24T02:36:40.444Z,70.86
2022-11-24T02:39:12.433Z,70.04
2022-11-24T02:41:42.360Z,70.27
2022-11-24T02:44:09.911Z,70.33
2022-11-24T02:46:37.280Z,70.63
2022-11-24T02:49:04.704Z,71.85
2022-11-24T02:51:34.335Z,71.32
2022-11-24T02:54:01.713Z,71.32
2022-11-24T02:56:29.047Z,70.58
2022-11-24T02:58:56.591Z,69.90
2022-11-24T03:01:24.038Z,70.48
2022-11-24T03:03:51.362Z,70.27
2022-11-24T03:06:18.912Z,71.81
2022-11-24T03:08:46.424Z,71.43
2022-11-24T03:11:13.731Z,71.02
2022-11-24T03:13:41.276Z,70.35
2022-11-24T03:16:09.935Z,70.10
2022-11-24T03:18:37.304Z,68.81
2022-11-24T03:21:04.953Z,69.62
2022-11-24T03:23:32.272Z,69.65
2022-11-24T03:26:18.223Z,69.57
2022-11-24T03:28:45.812Z,69.55
2022-11-24T03:31:14.074Z,69.87
2022-11-24T03:33:41.450Z,70.04
2022-11-24T03:36:09.441Z,70.53
2022-11-24T03:38:36.729Z,70.14
2022-11-24T03:41:04.165Z,70.24
2022-11-24T03:43:31.833Z,70.80
2022-11-24T03:45:59.276Z,70.44
2022-11-24T03:48:26.582Z,69.29
2022-11-24T03:50:55.263Z,70.29
2022-11-24T03:53:24.565Z,71.18
2022-11-24T03:55:52.115Z,69.59
2022-11-24T03:58:19.951Z,70.36
2022-11-24T04:00:51.043Z,71.14
2022-11-24T04:03:19.194Z,72.24
2022-11-24T04:05:46.905Z,71.72
2022-11-24T04:08:14.687Z,71.21
2022-11-24T04:10:42.412Z,71.17
2022-11-24T04:13:14.911Z,70.61
2022-11-24T04:15:43.273Z,70.46
2022-11-24T04:18:11.436Z,70.24
2022-11-24T04:20:39.521Z,70.55
2022-11-24T04:23:07.465Z,70.54
2022-11-24T04:25:35.243Z,70.42
2022-11-24T04:28:02.643Z,69.81
2022-11-24T04:30:30.332Z,69.20
2022-11-24T04:32:57.629Z,70.59
2022-11-24T04:35:25.232Z,71.00
2022-11-24T04:37:52.858Z,71.03
2022-11-24T04:40:20.355Z,71.26
2022-11-24T04:42:55.119Z,71.26
2022-11-24T04:45:23.494Z,70.36
2022-11-24T04:47:50.848Z,70.58
2022-11-24T04:50:18.202Z,70.93
2022-11-24T04:52:45.924Z,71.01
2022-11-24T04:55:13.204Z,73.29
2022-11-24T04:57:40.839Z,72.74
2022-11-24T05:00:09.106Z,73.01
2022-11-24T05:02:36.486Z,73.19
2022-11-24T05:05:04.889Z,71.58
2022-11-24T05:07:32.922Z,71.31
2022-11-24T05:10:18.902Z,71.64
2022-11-24T05:12:54.816Z,71.22
2022-11-24T05:15:22.207Z,70.59
2022-11-24T05:17:49.823Z,69.27
2022-11-24T05:20:18.172Z,68.90
2022-11-24T05:22:45.492Z,68.02
2022-11-24T05:25:14.237Z,67.39
2022-11-24T05:27:41.643Z,68.33
2022-11-24T05:30:09.755Z,67.67
2022-11-24T05:32:37.337Z,67.52
2022-11-24T05:35:05.431Z,67.58
2022-11-24T05:37:32.730Z,66.72
2022-11-24T05:40:00.281Z,66.33
2022-11-24T05:42:47.051Z,66.81
2022-11-24T05:45:18.306Z,66.53
2022-11-24T05:47:46.201Z,65.54
2022-11-24T05:50:15.192Z,66.29
2022-11-24T05:52:42.990Z,65.34
2022-11-24T05:55:11.303Z,65.44
2022-11-24T05:57:38.670Z,66.50
2022-11-24T06:00:07.837Z,66.45
2022-11-24T06:02:40.136Z,66.36
2022-11-24T06:05:08.226Z,66.01
2022-11-24T06:07:35.759Z,66.83
2022-11-24T06:10:03.739Z,70.78
2022-11-24T06:12:31.362Z,65.57
2022-11-24T06:14:58.666Z,65.16
2022-11-24T06:17:26.005Z,65.39
2022-11-24T06:19:53.671Z,65.24
2022-11-24T06:22:21.141Z,64.51
2022-11-24T06:24:50.527Z,65.85
2022-11-24T06:27:18.202Z,65.94
2022-11-24T06:29:46.440Z,65.61
2022-11-24T06:32:13.879Z,66.70
2022-11-24T06:34:41.563Z,66.13
2022-11-24T06:37:08.930Z,66.81
2022-11-24T06:39:36.459Z,65.59
2022-11-24T06:42:04.147Z,65.31
2022-11-24T06:44:31.570Z,65.43
2022-11-24T06:46:59.034Z,67.63
2022-11-24T06:49:26.576Z,67.52
2022-11-24T06:51:55.075Z,66.76
2022-11-24T06:54:22.431Z,67.59
2022-11-24T06:56:50.071Z,68.44
2022-11-24T06:59:19.035Z,68.01
2022-11-24T07:01:46.952Z,68.89
2022-11-24T07:04:15.081Z,68.35
2022-11-24T07:06:42.742Z,68.08
2022-11-24T07:09:11.248Z,68.00
2022-11-24T07:11:39.614Z,67.52
2022-11-24T07:14:07.092Z,66.35
2022-11-24T07:16:34.649Z,67.01
2022-11-24T07:19:02.362Z,67.31
2022-11-24T07:21:30.787Z,66.70
2022-11-24T07:23:58.821Z,65.34
2022-11-24T07:26:27.007Z,65.92
2022-11-24T07:28:54.454Z,66.39
2022-11-24T07:31:24.955Z,67.04
2022-11-24T07:33:54.127Z,66.17
2022-11-24T07:36:22.280Z,65.41
2022-11-24T07:38:49.718Z,64.63
2022-11-24T07:41:19.561Z,64.65
2022-11-24T07:43:47.756Z,65.33
2022-11-24T07:46:17.462Z,65.49
2022-11-24T07:48:45.726Z,65.25
2022-11-24T07:51:13.144Z,65.07
2022-11-24T07:53:40.572Z,65.02
2022-11-24T07:56:09.536Z,64.98
2022-11-24T07:58:37.586Z,65.45
2022-11-24T08:01:16.132Z,63.64
2022-11-24T08:03:44.562Z,64.31
2022-11-24T08:06:35.362Z,63.49
2022-11-24T08:09:00.530Z,64.51
2022-11-24T08:11:27.871Z,64.25
2022-11-24T08:13:55.418Z,64.74
2022-11-24T08:16:23.161Z,63.39
2022-11-24T08:18:52.684Z,63.78
2022-11-24T08:21:20.288Z,64.26
2022-11-24T08:23:47.861Z,63.14
2022-11-24T08:26:18.814Z,64.54
2022-11-24T08:28:47.109Z,64.88
2022-11-24T08:31:18.446Z,63.91
2022-11-24T08:33:46.162Z,64.45
2022-11-24T08:36:18.535Z,63.73
2022-11-24T08:38:46.646Z,64.22
2022-11-24T08:41:15.949Z,63.23
2022-11-24T08:43:43.357Z,65.19
2022-11-24T08:46:13.797Z,65.09
2022-11-24T08:48:41.554Z,63.73
2022-11-24T08:51:11.850Z,62.72
2022-11-24T08:53:40.104Z,62.88
2022-11-24T08:56:08.322Z,62.42
2022-11-24T08:58:36.628Z,62.84
2022-11-24T09:01:16.146Z,63.63
2022-11-24T09:03:50.060Z,62.93
2022-11-24T09:06:19.976Z,61.71
2022-11-24T09:08:47.373Z,63.38
2022-11-24T09:11:16.317Z,62.82
2022-11-24T09:13:44.210Z,61.90
2022-11-24T09:16:14.174Z,62.05
2022-11-24T09:18:41.835Z,62.26
2022-11-24T09:21:15.273Z,62.37
2022-11-24T09:23:44.430Z,62.24
2022-11-24T09:26:14.314Z,62.16
2022-11-24T09:28:42.085Z,61.96
2022-11-24T09:31:12.597Z,61.23
2022-11-24T09:33:40.804Z,62.90
2022-11-24T09:36:08.545Z,62.40
2022-11-24T09:38:36.022Z,62.17
2022-11-24T09:41:31.598Z,61.19
2022-11-24T09:44:32.774Z,61.99
2022-11-24T09:47:10.199Z,61.71
2022-11-24T09:49:59.032Z,62.61
2022-11-24T09:52:39.354Z,62.06
2022-11-24T09:55:19.552Z,62.28
2022-11-24T09:57:49.159Z,62.19
2022-11-24T10:00:16.982Z,63.60
2022-11-24T10:02:46.028Z,62.46
2022-11-24T10:05:13.509Z,63.39
2022-11-24T10:08:01.752Z,63.68
2022-11-24T10:10:49.247Z,63.22
2022-11-24T10:13:31.967Z,62.49
2022-11-24T10:16:27.562Z,63.74
2022-11-24T10:19:21.975Z,64.78
2022-11-24T10:22:06.703Z,65.28
2022-11-24T10:24:45.982Z,64.71
2022-11-24T10:27:18.405Z,64.58
2022-11-24T10:29:49.227Z,64.67
2022-11-24T10:32:27.847Z,63.13
2022-11-24T10:34:59.289Z,64.14
2022-11-24T10:37:35.785Z,65.01
2022-11-24T10:40:55.399Z,64.25
2022-11-24T10:43:13.022Z,63.78
2022-11-24T10:45:40.541Z,64.08
2022-11-24T10:48:20.534Z,64.02
2022-11-24T10:50:48.173Z,64.16
2022-11-24T10:53:22.600Z,64.68
2022-11-24T10:55:56.344Z,63.44
2022-11-24T10:58:26.705Z,63.11
2022-11-24T11:00:55.392Z,63.31
2022-11-24T11:03:28.186Z,63.38
2022-11-24T11:06:10.931Z,62.78
2022-11-24T11:08:38.391Z,62.74
2022-11-24T11:11:21.176Z,61.64
2022-11-24T11:13:56.856Z,61.08
2022-11-24T11:16:46.217Z,61.24
2022-11-24T11:19:49.545Z,60.79
2022-11-24T11:22:29.272Z,60.71
2022-11-24T11:25:04.845Z,60.92
2022-11-24T11:27:32.485Z,60.75
2022-11-24T11:36:10.941Z,61.04
2022-11-24T11:38:39.820Z,59.82
2022-11-24T11:41:13.774Z,59.86
2022-11-24T11:43:41.766Z,59.47
2022-11-24T11:46:15.580Z,58.60
2022-11-24T11:48:47.293Z,60.17
2022-11-24T11:51:32.742Z,59.51
2022-11-24T11:54:18.322Z,60.00
2022-11-24T11:56:50.382Z,60.24
2022-11-24T11:59:32.847Z,60.66
2022-11-24T12:02:13.521Z,61.15
2022-11-24T12:05:00.794Z,60.16
2022-11-24T12:07:56.440Z,61.37
2022-11-24T12:10:41.478Z,62.57
2022-11-24T12:13:53.933Z,61.01
2022-11-24T12:16:56.617Z,62.52
2022-11-24T12:19:23.789Z,62.01
2022-11-24T12:21:55.928Z,61.81
2022-11-24T12:24:31.921Z,61.72
2022-11-24T12:27:04.573Z,61.47
2022-11-24T12:29:59.519Z,61.05
2022-11-24T12:32:26.988Z,61.39
2022-11-24T12:35:06.322Z,61.68
2022-11-24T12:37:45.239Z,61.45
2022-11-24T12:40:46.359Z,61.23
2022-11-24T12:43:34.569Z,61.46
2022-11-24T12:46:04.205Z,60.00
2022-11-24T12:48:54.964Z,60.58
2022-11-24T12:51:33.803Z,59.50
2022-11-24T12:54:03.466Z,59.98
2022-11-24T12:56:55.742Z,59.80
2022-11-24T12:59:34.612Z,58.92
2022-11-24T13:02:20.058Z,59.06
2022-11-24T13:04:53.993Z,60.32
2022-11-24T13:07:34.500Z,59.49
2022-11-24T13:10:54.179Z,59.41
2022-11-24T13:13:16.794Z,59.67
2022-11-24T13:18:59.048Z,59.36
2022-11-24T13:21:32.043Z,59.78
2022-11-24T13:24:26.826Z,59.23
2022-11-24T13:27:15.825Z,58.46
2022-11-24T13:29:44.513Z,59.07
2022-11-24T13:32:11.944Z,59.18
2022-11-24T13:34:39.301Z,58.46
2022-11-24T13:37:31.485Z,59.40
2022-11-24T13:40:23.145Z,59.43
2022-11-24T13:42:57.426Z,60.32
2022-11-24T13:45:45.039Z,59.42
2022-11-24T13:48:21.960Z,60.05
2022-11-24T13:50:50.672Z,59.78
2022-11-24T13:53:35.122Z,60.46
2022-11-24T13:56:02.558Z,60.43
2022-11-24T13:58:34.506Z,60.86
2022-11-24T14:01:07.322Z,60.45
2022-11-24T14:03:36.627Z,60.19
2022-11-24T14:06:04.377Z,60.72
2022-11-24T14:08:34.215Z,61.19
2022-11-24T14:11:03.173Z,60.48
2022-11-24T14:13:33.342Z,61.70
2022-11-24T14:16:06.935Z,60.43
2022-11-24T14:18:55.841Z,61.07
2022-11-24T14:21:31.599Z,60.84
2022-11-24T14:24:27.261Z,60.83
2022-11-24T14:26:54.614Z,60.71
2022-11-24T14:29:23.833Z,62.22
2022-11-24T14:31:55.890Z,61.42
2022-11-24T14:34:26.428Z,62.47
2022-11-24T14:36:55.330Z,61.73
2022-11-24T14:39:25.378Z,61.86
2022-11-24T14:42:16.638Z,62.50
2022-11-24T14:44:48.561Z,62.68
2022-11-24T14:47:36.292Z,61.97
2022-11-24T14:50:15.918Z,61.53
2022-11-24T14:53:03.572Z,60.87
2022-11-24T14:55:32.959Z,61.59
2022-11-24T14:58:00.400Z,61.79
2022-11-24T15:00:30.979Z,61.98
2022-11-24T15:03:01.659Z,62.22
2022-11-24T15:05:52.068Z,61.75
2022-11-24T15:08:19.863Z,60.15
2022-11-24T15:10:47.450Z,60.60
2022-11-24T15:13:23.773Z,59.92
2022-11-24T15:16:15.472Z,59.79
2022-11-24T15:18:45.122Z,60.24
2022-11-24T15:21:19.000Z,60.11
2022-11-24T15:24:05.894Z,60.93
2022-11-24T15:26:39.999Z,60.54
2022-11-24T15:29:09.903Z,60.12
2022-11-24T15:31:41.378Z,59.43
2022-11-24T15:34:12.757Z,59.40
2022-11-24T15:36:40.317Z,60.13
2022-11-24T15:39:07.866Z,60.25
2022-11-24T15:41:35.255Z,61.06
2022-11-24T15:44:02.863Z,60.66
2022-11-24T15:46:37.793Z,60.09
2022-11-24T15:49:06.281Z,60.17
2022-11-24T15:51:33.970Z,60.21
2022-11-24T15:54:01.728Z,60.01
2022-11-24T15:56:32.375Z,60.72
2022-11-24T15:59:00.434Z,60.14
2022-11-24T16:01:31.285Z,60.77
2022-11-24T16:03:59.143Z,60.40
2022-11-24T16:06:26.486Z,61.02
2022-11-24T16:08:54.207Z,61.88
2022-11-24T16:11:22.945Z,62.89
2022-11-24T16:13:53.447Z,63.11
2022-11-24T16:16:24.681Z,62.92
2022-11-24T16:18:52.566Z,63.98
2022-11-24T16:21:19.945Z,63.89
2022-11-24T16:23:48.635Z,65.13
2022-11-24T16:26:16.002Z,65.42
2022-11-24T16:28:45.226Z,65.22
2022-11-24T16:31:15.691Z,65.50
2022-11-24T16:33:44.938Z,65.03
2022-11-24T16:36:13.787Z,63.83
2022-11-24T16:38:41.167Z,64.57
2022-11-24T16:41:10.416Z,65.84
2022-11-24T16:43:38.680Z,65.55
2022-11-24T16:46:21.906Z,65.38
2022-11-24T16:48:51.513Z,65.22
2022-11-24T16:51:20.769Z,65.10
2022-11-24T16:53:48.790Z,65.69
2022-11-24T16:56:17.468Z,65.38
2022-11-24T16:58:44.799Z,65.97
2022-11-24T17:01:12.945Z,64.89
2022-11-24T17:03:40.674Z,64.42
2022-11-24T17:06:11.333Z,65.14
2022-11-24T17:08:40.134Z,65.15
2022-11-24T17:11:14.889Z,64.46
2022-11-24T17:13:43.018Z,63.46
2022-11-24T17:16:12.766Z,64.48
2022-11-24T17:18:40.644Z,63.93
2022-11-24T17:21:13.169Z,63.43
2022-11-24T17:23:40.990Z,63.53
2022-11-24T17:26:11.378Z,63.33
2022-11-24T17:28:39.191Z,63.20
2022-11-24T17:31:17.007Z,63.33
2022-11-24T17:33:44.380Z,63.12
2022-11-24T17:36:12.101Z,62.72
2022-11-24T17:38:39.560Z,63.70
2022-11-24T17:41:06.836Z,63.11
2022-11-24T17:43:34.477Z,63.68
2022-11-24T17:46:03.442Z,64.80
2022-11-24T17:48:31.541Z,65.65
2022-11-24T17:51:01.022Z,66.36
2022-11-24T17:53:28.601Z,65.90
2022-11-24T17:55:59.238Z,65.58
2022-11-24T17:58:28.463Z,65.35
2022-11-24T18:00:56.995Z,64.68
2022-11-24T18:03:31.336Z,63.35
2022-11-24T18:06:13.205Z,63.67
2022-11-24T18:08:43.031Z,63.02
2022-11-24T18:11:12.363Z,62.80
2022-11-24T18:13:58.033Z,62.96
2022-11-24T18:16:30.023Z,62.41
2022-11-24T18:19:14.862Z,63.06
2022-11-24T18:21:44.741Z,63.58
2022-11-24T18:24:12.892Z,62.64
2022-11-24T18:26:40.991Z,62.68
2022-11-24T18:29:09.273Z,62.55
2022-11-24T18:31:37.203Z,62.33
2022-11-24T18:34:05.599Z,62.79
2022-11-24T18:36:34.515Z,62.95
2022-11-24T18:39:03.574Z,62.83
2022-11-24T18:41:30.982Z,62.62
2022-11-24T18:44:02.282Z,63.00
2022-11-24T18:46:29.783Z,62.59
2022-11-24T18:48:57.167Z,62.59
2022-11-24T18:51:24.788Z,62.43
2022-11-24T18:53:58.158Z,62.14
2022-11-24T18:56:26.486Z,61.81
2022-11-24T18:58:54.622Z,61.82
2022-11-24T19:01:27.154Z,62.45
2022-11-24T19:03:56.921Z,62.92
2022-11-24T19:06:31.834Z,62.49
2022-11-24T19:09:02.357Z,62.21
2022-11-24T19:11:33.652Z,62.36
2022-11-24T19:14:02.626Z,62.41
2022-11-24T19:16:30.105Z,62.46
2022-11-24T19:18:59.938Z,62.47
2022-11-24T19:21:28.741Z,62.72
2022-11-24T19:24:01.279Z,62.20
2022-11-24T19:26:32.425Z,62.30
2022-11-24T19:28:59.765Z,62.12
2022-11-24T19:31:27.137Z,62.27
2022-11-24T19:33:55.332Z,63.04
2022-11-24T19:36:23.269Z,63.43
2022-11-24T19:38:52.877Z,63.54
2022-11-24T19:41:22.605Z,62.83
2022-11-24T19:43:50.153Z,63.21
2022-11-24T19:46:18.627Z,63.28
2022-11-24T19:48:49.981Z,65.65
2022-11-24T19:51:30.726Z,63.92
2022-11-24T19:53:58.863Z,62.03
2022-11-24T19:56:29.130Z,61.91
2022-11-24T19:58:57.054Z,61.47
2022-11-24T20:01:30.168Z,61.03
2022-11-24T20:04:00.850Z,61.10
2022-11-24T20:06:36.918Z,61.06
2022-11-24T20:09:07.778Z,60.98
2022-11-24T20:11:35.236Z,61.09
2022-11-24T20:14:02.814Z,61.11
2022-11-24T20:16:32.183Z,61.07
2022-11-24T20:19:11.162Z,61.38
2022-11-24T20:21:40.002Z,61.20
2022-11-24T20:24:10.908Z,61.29
2022-11-24T20:26:41.181Z,61.25
2022-11-24T20:29:09.902Z,60.87
2022-11-24T20:31:40.136Z,60.86
2022-11-24T20:34:10.934Z,60.70
2022-11-24T20:36:40.549Z,60.73
2022-11-24T20:39:12.313Z,61.47
2022-11-24T20:41:40.226Z,61.14
2022-11-24T20:44:13.089Z,60.55
2022-11-24T20:46:42.333Z,60.59
2022-11-24T20:49:13.208Z,60.72
2022-11-24T20:51:46.897Z,60.89
2022-11-24T20:54:15.486Z,60.92
2022-11-24T20:56:44.215Z,61.36
2022-11-24T20:59:16.094Z,61.09
2022-11-24T21:01:45.892Z,61.20
2022-11-24T21:04:18.617Z,61.27
2022-11-24T21:06:46.771Z,61.22
2022-11-24T21:09:14.144Z,61.23
2022-11-24T21:11:41.553Z,61.41
2022-11-24T21:14:09.859Z,61.18
2022-11-24T21:16:38.931Z,60.95
2022-11-24T21:19:12.231Z,60.91
2022-11-24T21:21:41.063Z,60.69
2022-11-24T21:24:16.783Z,60.75
2022-11-24T21:26:47.800Z,60.98
2022-11-24T21:29:17.366Z,62.83
2022-11-24T21:31:45.091Z,61.07
2022-11-24T21:34:15.465Z,60.34
2022-11-24T21:36:45.085Z,60.55
2022-11-24T21:39:14.180Z,60.66
2022-11-24T21:41:41.781Z,60.16
2022-11-24T21:44:11.420Z,60.13
2022-11-24T21:46:44.158Z,60.21
2022-11-24T21:49:15.913Z,60.36
2022-11-24T21:51:43.851Z,60.77
2022-11-24T21:54:11.150Z,60.54
2022-11-24T21:56:38.496Z,60.75
2022-11-24T21:59:06.240Z,60.93
2022-11-24T22:01:33.689Z,61.08
2022-11-24T22:04:01.444Z,61.12
2022-11-24T22:06:29.024Z,60.84
2022-11-24T22:08:56.601Z,60.92
2022-11-24T22:11:25.334Z,60.53
2022-11-24T22:13:52.742Z,60.29
2022-11-24T22:16:22.409Z,60.56
2022-11-24T22:18:50.398Z,60.79
2022-11-24T22:21:29.170Z,60.96
2022-11-24T22:23:56.865Z,61.05
2022-11-24T22:26:24.496Z,61.18
2022-11-24T22:28:53.250Z,61.19
2022-11-24T22:31:23.367Z,61.02
2022-11-24T22:33:51.376Z,61.43
2022-11-24T22:36:21.114Z,61.08
2022-11-24T22:38:57.311Z,61.45
2022-11-24T22:41:25.330Z,61.21
2022-11-24T22:43:53.601Z,61.49
2022-11-24T22:46:23.150Z,61.31
2022-11-24T22:48:54.250Z,61.30
2022-11-24T22:51:26.019Z,61.42
2022-11-24T22:53:55.789Z,61.24
2022-11-24T22:56:24.496Z,61.23
2022-11-24T22:58:51.831Z,61.52
2022-11-24T23:01:21.232Z,61.67
2022-11-24T23:03:49.465Z,62.02
2022-11-24T23:06:20.269Z,62.04
2022-11-24T23:08:48.620Z,62.60
2022-11-24T23:11:31.553Z,62.63
2022-11-24T23:14:00.522Z,62.55
2022-11-24T23:16:29.177Z,62.49
2022-11-24T23:18:57.142Z,62.08
2022-11-24T23:21:29.634Z,62.14
2022-11-24T23:23:58.869Z,62.15
2022-11-24T23:26:28.870Z,61.87
2022-11-24T23:28:56.512Z,61.69
2022-11-24T23:31:31.697Z,61.34
2022-11-24T23:34:01.225Z,61.26
2022-11-24T23:36:29.975Z,61.14
2022-11-24T23:39:02.461Z,61.22
2022-11-24T23:41:31.708Z,60.96
2022-11-24T23:44:00.028Z,60.82
2022-11-24T23:46:27.913Z,61.12
2022-11-24T23:48:55.897Z,60.69
2022-11-24T23:51:31.089Z,60.91
2022-11-24T23:53:59.626Z,61.25
2022-11-24T23:56:31.448Z,61.59
2022-11-24T23:59:00.099Z,61.74
